sensor_id;sensor_type;location;lat;lon;timestamp;P1;durP1;ratioP1;P2;durP2;ratioP2
64615;SDS011;51027;42.162;24.754;2023-04-15T00:00:08;15.68;;;6.85;;
64615;SDS011;51027;42.162;24.754;2023-04-15T00:02:35;17.25;;;6.47;;
64615;SDS011;51027;42.162;24.754;2023-04-15T00:05:01;15.55;;;5.20;;
64615;SDS011;51027;42.162;24.754;2023-04-15T00:07:26;13.50;;;5.05;;
64615;SDS011;51027;42.162;24.754;2023-04-15T00:09:52;14.13;;;4.90;;
64615;SDS011;51027;42.162;24.754;2023-04-15T00:12:19;15.43;;;5.05;;
64615;SDS011;51027;42.162;24.754;2023-04-15T00:14:45;14.18;;;5.22;;
64615;SDS011;51027;42.162;24.754;2023-04-15T00:17:11;15.63;;;5.53;;
64615;SDS011;51027;42.162;24.754;2023-04-15T00:19:37;16.48;;;5.13;;
64615;SDS011;51027;42.162;24.754;2023-04-15T00:22:02;17.38;;;5.38;;
64615;SDS011;51027;42.162;24.754;2023-04-15T00:24:28;15.68;;;5.30;;
64615;SDS011;51027;42.162;24.754;2023-04-15T00:26:55;13.60;;;4.53;;
64615;SDS011;51027;42.162;24.754;2023-04-15T00:29:20;16.63;;;5.68;;
64615;SDS011;51027;42.162;24.754;2023-04-15T00:31:46;14.77;;;5.53;;
64615;SDS011;51027;42.162;24.754;2023-04-15T00:34:12;17.65;;;5.70;;
64615;SDS011;51027;42.162;24.754;2023-04-15T00:36:37;16.88;;;5.18;;
64615;SDS011;51027;42.162;24.754;2023-04-15T00:39:03;16.10;;;5.25;;
64615;SDS011;51027;42.162;24.754;2023-04-15T00:41:29;14.68;;;5.40;;
64615;SDS011;51027;42.162;24.754;2023-04-15T00:43:55;17.25;;;5.65;;
64615;SDS011;51027;42.162;24.754;2023-04-15T00:46:21;15.93;;;5.55;;
64615;SDS011;51027;42.162;24.754;2023-04-15T00:48:47;16.98;;;6.00;;
64615;SDS011;51027;42.162;24.754;2023-04-15T00:51:12;15.77;;;5.55;;
64615;SDS011;51027;42.162;24.754;2023-04-15T00:53:38;16.98;;;5.55;;
64615;SDS011;51027;42.162;24.754;2023-04-15T00:56:05;14.50;;;5.47;;
64615;SDS011;51027;42.162;24.754;2023-04-15T00:58:31;17.58;;;6.18;;
64615;SDS011;51027;42.162;24.754;2023-04-15T01:00:56;14.48;;;5.25;;
64615;SDS011;51027;42.162;24.754;2023-04-15T01:03:23;16.52;;;6.13;;
64615;SDS011;51027;42.162;24.754;2023-04-15T01:05:49;16.02;;;5.30;;
64615;SDS011;51027;42.162;24.754;2023-04-15T01:08:15;15.85;;;5.78;;
64615;SDS011;51027;42.162;24.754;2023-04-15T01:10:40;15.82;;;5.60;;
64615;SDS011;51027;42.162;24.754;2023-04-15T01:13:06;14.93;;;5.65;;
64615;SDS011;51027;42.162;24.754;2023-04-15T01:15:31;16.45;;;5.57;;
64615;SDS011;51027;42.162;24.754;2023-04-15T01:18:00;15.90;;;5.60;;
64615;SDS011;51027;42.162;24.754;2023-04-15T01:22:53;12.23;;;4.75;;
64615;SDS011;51027;42.162;24.754;2023-04-15T01:25:30;14.43;;;5.30;;
64615;SDS011;51027;42.162;24.754;2023-04-15T01:27:57;12.40;;;4.50;;
64615;SDS011;51027;42.162;24.754;2023-04-15T01:30:23;14.18;;;4.50;;
64615;SDS011;51027;42.162;24.754;2023-04-15T01:32:49;14.55;;;5.32;;
64615;SDS011;51027;42.162;24.754;2023-04-15T01:35:15;13.43;;;4.75;;
64615;SDS011;51027;42.162;24.754;2023-04-15T01:37:41;12.82;;;4.57;;
64615;SDS011;51027;42.162;24.754;2023-04-15T01:40:07;15.93;;;5.32;;
64615;SDS011;51027;42.162;24.754;2023-04-15T01:42:33;13.27;;;4.78;;
64615;SDS011;51027;42.162;24.754;2023-04-15T01:45:00;15.02;;;5.15;;
64615;SDS011;51027;42.162;24.754;2023-04-15T01:47:26;14.65;;;5.53;;
64615;SDS011;51027;42.162;24.754;2023-04-15T01:49:51;15.07;;;5.68;;
64615;SDS011;51027;42.162;24.754;2023-04-15T01:52:17;15.60;;;5.00;;
64615;SDS011;51027;42.162;24.754;2023-04-15T01:54:42;15.57;;;5.28;;
64615;SDS011;51027;42.162;24.754;2023-04-15T01:57:08;13.80;;;4.93;;
64615;SDS011;51027;42.162;24.754;2023-04-15T01:59:33;13.98;;;5.07;;
64615;SDS011;51027;42.162;24.754;2023-04-15T02:01:59;15.00;;;5.43;;
64615;SDS011;51027;42.162;24.754;2023-04-15T02:04:25;14.18;;;4.78;;
64615;SDS011;51027;42.162;24.754;2023-04-15T02:06:52;13.55;;;4.78;;
64615;SDS011;51027;42.162;24.754;2023-04-15T02:09:17;13.57;;;4.80;;
64615;SDS011;51027;42.162;24.754;2023-04-15T02:11:43;13.77;;;4.80;;
64615;SDS011;51027;42.162;24.754;2023-04-15T02:14:08;12.27;;;4.50;;
64615;SDS011;51027;42.162;24.754;2023-04-15T02:16:34;12.50;;;4.60;;
64615;SDS011;51027;42.162;24.754;2023-04-15T02:18:59;12.02;;;4.47;;
64615;SDS011;51027;42.162;24.754;2023-04-15T02:21:25;12.25;;;4.47;;
64615;SDS011;51027;42.162;24.754;2023-04-15T02:23:51;13.32;;;4.65;;
64615;SDS011;51027;42.162;24.754;2023-04-15T02:26:18;14.10;;;4.47;;
64615;SDS011;51027;42.162;24.754;2023-04-15T02:28:44;13.20;;;4.38;;
64615;SDS011;51027;42.162;24.754;2023-04-15T02:31:10;10.88;;;4.00;;
64615;SDS011;51027;42.162;24.754;2023-04-15T02:33:36;13.20;;;4.85;;
64615;SDS011;51027;42.162;24.754;2023-04-15T02:36:01;14.95;;;4.60;;
64615;SDS011;51027;42.162;24.754;2023-04-15T02:38:27;12.75;;;4.07;;
64615;SDS011;51027;42.162;24.754;2023-04-15T02:40:53;13.75;;;4.63;;
64615;SDS011;51027;42.162;24.754;2023-04-15T02:43:18;14.60;;;4.25;;
64615;SDS011;51027;42.162;24.754;2023-04-15T02:45:44;13.63;;;4.22;;
64615;SDS011;51027;42.162;24.754;2023-04-15T02:48:11;12.07;;;4.25;;
64615;SDS011;51027;42.162;24.754;2023-04-15T02:50:36;12.00;;;3.85;;
64615;SDS011;51027;42.162;24.754;2023-04-15T02:53:03;13.10;;;4.20;;
64615;SDS011;51027;42.162;24.754;2023-04-15T02:55:29;11.52;;;3.78;;
64615;SDS011;51027;42.162;24.754;2023-04-15T02:57:55;12.23;;;3.88;;
64615;SDS011;51027;42.162;24.754;2023-04-15T03:00:22;11.63;;;4.07;;
64615;SDS011;51027;42.162;24.754;2023-04-15T03:02:49;10.52;;;3.58;;
64615;SDS011;51027;42.162;24.754;2023-04-15T03:05:20;12.85;;;3.63;;
64615;SDS011;51027;42.162;24.754;2023-04-15T03:07:47;11.00;;;3.67;;
64615;SDS011;51027;42.162;24.754;2023-04-15T03:10:13;10.32;;;3.53;;
64615;SDS011;51027;42.162;24.754;2023-04-15T03:12:38;10.43;;;3.20;;
64615;SDS011;51027;42.162;24.754;2023-04-15T03:15:04;10.27;;;3.58;;
64615;SDS011;51027;42.162;24.754;2023-04-15T03:17:30;13.27;;;3.38;;
64615;SDS011;51027;42.162;24.754;2023-04-15T03:19:56;8.57;;;3.10;;
64615;SDS011;51027;42.162;24.754;2023-04-15T03:22:21;10.05;;;3.47;;
64615;SDS011;51027;42.162;24.754;2023-04-15T03:24:47;10.35;;;3.55;;
64615;SDS011;51027;42.162;24.754;2023-04-15T03:27:12;11.68;;;3.70;;
64615;SDS011;51027;42.162;24.754;2023-04-15T03:29:37;10.45;;;3.40;;
64615;SDS011;51027;42.162;24.754;2023-04-15T03:32:03;13.38;;;4.25;;
64615;SDS011;51027;42.162;24.754;2023-04-15T03:34:28;13.68;;;3.58;;
64615;SDS011;51027;42.162;24.754;2023-04-15T03:36:54;10.63;;;3.75;;
64615;SDS011;51027;42.162;24.754;2023-04-15T03:39:20;11.82;;;4.05;;
64615;SDS011;51027;42.162;24.754;2023-04-15T03:41:45;12.00;;;3.90;;
64615;SDS011;51027;42.162;24.754;2023-04-15T03:44:11;9.82;;;3.70;;
64615;SDS011;51027;42.162;24.754;2023-04-15T03:46:36;11.70;;;3.90;;
64615;SDS011;51027;42.162;24.754;2023-04-15T03:49:02;13.63;;;4.15;;
64615;SDS011;51027;42.162;24.754;2023-04-15T03:51:27;10.35;;;3.67;;
64615;SDS011;51027;42.162;24.754;2023-04-15T03:53:53;13.88;;;4.00;;
64615;SDS011;51027;42.162;24.754;2023-04-15T03:56:18;14.07;;;4.60;;
64615;SDS011;51027;42.162;24.754;2023-04-15T03:58:43;12.52;;;4.28;;
64615;SDS011;51027;42.162;24.754;2023-04-15T04:01:09;13.38;;;4.25;;
64615;SDS011;51027;42.162;24.754;2023-04-15T04:03:34;14.15;;;4.10;;
64615;SDS011;51027;42.162;24.754;2023-04-15T04:06:01;10.82;;;3.72;;
64615;SDS011;51027;42.162;24.754;2023-04-15T04:08:26;13.48;;;3.70;;
64615;SDS011;51027;42.162;24.754;2023-04-15T04:10:52;15.55;;;4.00;;
64615;SDS011;51027;42.162;24.754;2023-04-15T04:13:17;12.65;;;3.67;;
64615;SDS011;51027;42.162;24.754;2023-04-15T04:15:42;14.68;;;4.47;;
64615;SDS011;51027;42.162;24.754;2023-04-15T04:18:08;12.40;;;4.45;;
64615;SDS011;51027;42.162;24.754;2023-04-15T04:20:33;14.00;;;4.70;;
64615;SDS011;51027;42.162;24.754;2023-04-15T04:22:59;14.15;;;4.28;;
64615;SDS011;51027;42.162;24.754;2023-04-15T04:25:24;13.00;;;4.50;;
64615;SDS011;51027;42.162;24.754;2023-04-15T04:27:50;12.18;;;4.38;;
64615;SDS011;51027;42.162;24.754;2023-04-15T04:30:15;15.18;;;3.95;;
64615;SDS011;51027;42.162;24.754;2023-04-15T04:32:41;12.65;;;3.83;;
64615;SDS011;51027;42.162;24.754;2023-04-15T04:35:06;12.60;;;4.25;;
64615;SDS011;51027;42.162;24.754;2023-04-15T04:37:32;12.55;;;3.40;;
64615;SDS011;51027;42.162;24.754;2023-04-15T04:39:58;10.38;;;3.63;;
64615;SDS011;51027;42.162;24.754;2023-04-15T04:42:23;11.57;;;3.67;;
64615;SDS011;51027;42.162;24.754;2023-04-15T04:44:48;10.73;;;3.63;;
64615;SDS011;51027;42.162;24.754;2023-04-15T04:47:14;13.85;;;3.70;;
64615;SDS011;51027;42.162;24.754;2023-04-15T04:49:40;11.13;;;3.70;;
64615;SDS011;51027;42.162;24.754;2023-04-15T04:52:05;8.63;;;3.15;;
64615;SDS011;51027;42.162;24.754;2023-04-15T04:54:31;12.82;;;3.65;;
64615;SDS011;51027;42.162;24.754;2023-04-15T04:56:56;12.45;;;3.50;;
64615;SDS011;51027;42.162;24.754;2023-04-15T04:59:22;10.98;;;3.40;;
64615;SDS011;51027;42.162;24.754;2023-04-15T05:01:48;13.73;;;4.00;;
64615;SDS011;51027;42.162;24.754;2023-04-15T05:04:13;12.82;;;3.80;;
64615;SDS011;51027;42.162;24.754;2023-04-15T05:06:39;16.73;;;4.90;;
64615;SDS011;51027;42.162;24.754;2023-04-15T05:09:04;17.70;;;6.30;;
64615;SDS011;51027;42.162;24.754;2023-04-15T05:11:30;16.38;;;5.05;;
64615;SDS011;51027;42.162;24.754;2023-04-15T05:13:55;10.45;;;3.67;;
64615;SDS011;51027;42.162;24.754;2023-04-15T05:16:22;26.45;;;10.18;;
64615;SDS011;51027;42.162;24.754;2023-04-15T05:18:47;15.20;;;5.18;;
64615;SDS011;51027;42.162;24.754;2023-04-15T05:21:12;18.38;;;6.78;;
64615;SDS011;51027;42.162;24.754;2023-04-15T05:23:38;20.08;;;6.97;;
64615;SDS011;51027;42.162;24.754;2023-04-15T05:26:04;16.02;;;4.68;;
64615;SDS011;51027;42.162;24.754;2023-04-15T05:28:29;20.30;;;7.07;;
64615;SDS011;51027;42.162;24.754;2023-04-15T05:30:55;13.23;;;4.57;;
64615;SDS011;51027;42.162;24.754;2023-04-15T05:33:20;16.45;;;6.35;;
64615;SDS011;51027;42.162;24.754;2023-04-15T05:35:47;14.93;;;4.93;;
64615;SDS011;51027;42.162;24.754;2023-04-15T05:38:12;12.73;;;4.30;;
64615;SDS011;51027;42.162;24.754;2023-04-15T05:40:38;19.38;;;5.78;;
64615;SDS011;51027;42.162;24.754;2023-04-15T05:43:03;13.45;;;3.90;;
64615;SDS011;51027;42.162;24.754;2023-04-15T05:45:28;16.58;;;5.85;;
64615;SDS011;51027;42.162;24.754;2023-04-15T05:47:54;12.02;;;4.15;;
64615;SDS011;51027;42.162;24.754;2023-04-15T05:50:19;15.40;;;4.22;;
64615;SDS011;51027;42.162;24.754;2023-04-15T05:52:45;11.70;;;4.10;;
64615;SDS011;51027;42.162;24.754;2023-04-15T05:55:10;25.75;;;8.30;;
64615;SDS011;51027;42.162;24.754;2023-04-15T05:57:36;10.18;;;3.58;;
64615;SDS011;51027;42.162;24.754;2023-04-15T06:00:02;13.48;;;4.18;;
64615;SDS011;51027;42.162;24.754;2023-04-15T06:02:29;10.48;;;3.63;;
64615;SDS011;51027;42.162;24.754;2023-04-15T06:04:55;12.73;;;3.65;;
64615;SDS011;51027;42.162;24.754;2023-04-15T06:07:21;12.65;;;3.65;;
64615;SDS011;51027;42.162;24.754;2023-04-15T06:09:48;8.73;;;3.25;;
64615;SDS011;51027;42.162;24.754;2023-04-15T06:12:13;8.82;;;2.97;;
64615;SDS011;51027;42.162;24.754;2023-04-15T06:14:39;11.35;;;3.47;;
64615;SDS011;51027;42.162;24.754;2023-04-15T06:17:06;10.63;;;3.42;;
64615;SDS011;51027;42.162;24.754;2023-04-15T06:19:32;9.55;;;3.30;;
64615;SDS011;51027;42.162;24.754;2023-04-15T06:21:57;13.25;;;3.38;;
64615;SDS011;51027;42.162;24.754;2023-04-15T06:24:23;9.13;;;3.30;;
64615;SDS011;51027;42.162;24.754;2023-04-15T06:26:48;9.27;;;3.50;;
64615;SDS011;51027;42.162;24.754;2023-04-15T06:29:14;14.00;;;4.57;;
64615;SDS011;51027;42.162;24.754;2023-04-15T06:31:40;10.75;;;3.33;;
64615;SDS011;51027;42.162;24.754;2023-04-15T06:34:05;8.95;;;3.33;;
64615;SDS011;51027;42.162;24.754;2023-04-15T06:36:31;10.20;;;3.20;;
64615;SDS011;51027;42.162;24.754;2023-04-15T06:38:56;12.52;;;3.78;;
64615;SDS011;51027;42.162;24.754;2023-04-15T06:41:25;13.02;;;3.35;;
64615;SDS011;51027;42.162;24.754;2023-04-15T06:43:50;11.48;;;3.53;;
64615;SDS011;51027;42.162;24.754;2023-04-15T06:46:16;12.85;;;3.42;;
64615;SDS011;51027;42.162;24.754;2023-04-15T06:48:41;10.18;;;3.50;;
64615;SDS011;51027;42.162;24.754;2023-04-15T06:51:07;10.73;;;3.05;;
64615;SDS011;51027;42.162;24.754;2023-04-15T06:53:32;10.70;;;3.35;;
64615;SDS011;51027;42.162;24.754;2023-04-15T06:55:59;11.02;;;3.50;;
64615;SDS011;51027;42.162;24.754;2023-04-15T06:58:25;12.07;;;3.50;;
64615;SDS011;51027;42.162;24.754;2023-04-15T07:00:51;11.38;;;3.60;;
64615;SDS011;51027;42.162;24.754;2023-04-15T07:03:17;10.20;;;3.47;;
64615;SDS011;51027;42.162;24.754;2023-04-15T07:05:42;10.02;;;3.30;;
64615;SDS011;51027;42.162;24.754;2023-04-15T07:08:07;14.02;;;4.20;;
64615;SDS011;51027;42.162;24.754;2023-04-15T07:10:33;12.43;;;4.05;;
64615;SDS011;51027;42.162;24.754;2023-04-15T07:12:59;12.95;;;3.70;;
64615;SDS011;51027;42.162;24.754;2023-04-15T07:15:25;14.18;;;4.10;;
64615;SDS011;51027;42.162;24.754;2023-04-15T07:17:50;14.18;;;4.20;;
64615;SDS011;51027;42.162;24.754;2023-04-15T07:20:16;14.50;;;4.20;;
64615;SDS011;51027;42.162;24.754;2023-04-15T07:22:41;13.32;;;3.92;;
64615;SDS011;51027;42.162;24.754;2023-04-15T07:25:07;12.98;;;4.22;;
64615;SDS011;51027;42.162;24.754;2023-04-15T07:27:33;14.00;;;4.80;;
64615;SDS011;51027;42.162;24.754;2023-04-15T07:29:58;13.82;;;4.85;;
64615;SDS011;51027;42.162;24.754;2023-04-15T07:32:24;18.02;;;5.15;;
64615;SDS011;51027;42.162;24.754;2023-04-15T07:34:50;14.32;;;5.20;;
64615;SDS011;51027;42.162;24.754;2023-04-15T07:37:15;11.00;;;3.58;;
64615;SDS011;51027;42.162;24.754;2023-04-15T07:39:41;13.50;;;4.20;;
64615;SDS011;51027;42.162;24.754;2023-04-15T07:42:07;15.23;;;3.97;;
64615;SDS011;51027;42.162;24.754;2023-04-15T07:44:33;11.82;;;4.43;;
64615;SDS011;51027;42.162;24.754;2023-04-15T07:46:59;14.57;;;4.80;;
64615;SDS011;51027;42.162;24.754;2023-04-15T07:49:24;17.25;;;6.55;;
64615;SDS011;51027;42.162;24.754;2023-04-15T07:51:50;17.85;;;5.70;;
64615;SDS011;51027;42.162;24.754;2023-04-15T07:54:15;17.30;;;5.55;;
64615;SDS011;51027;42.162;24.754;2023-04-15T07:56:40;16.02;;;5.18;;
64615;SDS011;51027;42.162;24.754;2023-04-15T07:59:06;15.85;;;5.70;;
64615;SDS011;51027;42.162;24.754;2023-04-15T08:01:32;16.00;;;5.90;;
64615;SDS011;51027;42.162;24.754;2023-04-15T08:03:57;15.73;;;5.32;;
64615;SDS011;51027;42.162;24.754;2023-04-15T08:06:23;16.35;;;5.50;;
64615;SDS011;51027;42.162;24.754;2023-04-15T08:08:49;17.33;;;6.20;;
64615;SDS011;51027;42.162;24.754;2023-04-15T08:11:14;15.57;;;6.32;;
64615;SDS011;51027;42.162;24.754;2023-04-15T08:13:40;14.57;;;5.43;;
64615;SDS011;51027;42.162;24.754;2023-04-15T08:16:21;17.50;;;5.70;;
64615;SDS011;51027;42.162;24.754;2023-04-15T08:18:48;15.88;;;5.60;;
64615;SDS011;51027;42.162;24.754;2023-04-15T08:21:15;16.88;;;5.20;;
64615;SDS011;51027;42.162;24.754;2023-04-15T08:23:42;14.63;;;5.50;;
64615;SDS011;51027;42.162;24.754;2023-04-15T08:26:08;15.82;;;5.47;;
64615;SDS011;51027;42.162;24.754;2023-04-15T08:28:35;16.42;;;5.35;;
64615;SDS011;51027;42.162;24.754;2023-04-15T08:31:02;15.98;;;5.97;;
64615;SDS011;51027;42.162;24.754;2023-04-15T08:33:28;19.50;;;5.28;;
64615;SDS011;51027;42.162;24.754;2023-04-15T08:35:53;15.02;;;4.90;;
64615;SDS011;51027;42.162;24.754;2023-04-15T08:38:19;13.45;;;4.78;;
64615;SDS011;51027;42.162;24.754;2023-04-15T08:40:44;14.38;;;4.57;;
64615;SDS011;51027;42.162;24.754;2023-04-15T08:43:20;14.35;;;4.65;;
64615;SDS011;51027;42.162;24.754;2023-04-15T08:48:16;14.73;;;4.70;;
64615;SDS011;51027;42.162;24.754;2023-04-15T08:50:42;13.43;;;3.92;;
64615;SDS011;51027;42.162;24.754;2023-04-15T08:53:08;12.93;;;4.10;;
64615;SDS011;51027;42.162;24.754;2023-04-15T08:55:35;14.07;;;4.03;;
64615;SDS011;51027;42.162;24.754;2023-04-15T08:58:03;11.45;;;3.85;;
64615;SDS011;51027;42.162;24.754;2023-04-15T09:00:30;13.90;;;3.80;;
64615;SDS011;51027;42.162;24.754;2023-04-15T09:02:57;10.95;;;3.97;;
64615;SDS011;51027;42.162;24.754;2023-04-15T09:05:23;11.55;;;3.58;;
64615;SDS011;51027;42.162;24.754;2023-04-15T09:07:51;13.52;;;4.13;;
64615;SDS011;51027;42.162;24.754;2023-04-15T09:10:17;14.65;;;3.90;;
64615;SDS011;51027;42.162;24.754;2023-04-15T09:12:42;12.25;;;3.30;;
64615;SDS011;51027;42.162;24.754;2023-04-15T09:15:10;12.13;;;3.60;;
64615;SDS011;51027;42.162;24.754;2023-04-15T09:17:41;12.60;;;3.60;;
64615;SDS011;51027;42.162;24.754;2023-04-15T09:20:08;11.05;;;3.28;;
64615;SDS011;51027;42.162;24.754;2023-04-15T09:22:38;11.63;;;3.60;;
64615;SDS011;51027;42.162;24.754;2023-04-15T09:25:27;13.75;;;3.20;;
64615;SDS011;51027;42.162;24.754;2023-04-15T09:27:53;9.55;;;3.10;;
64615;SDS011;51027;42.162;24.754;2023-04-15T09:30:24;14.35;;;4.28;;
64615;SDS011;51027;42.162;24.754;2023-04-15T09:32:53;11.40;;;3.60;;
64615;SDS011;51027;42.162;24.754;2023-04-15T09:35:21;9.88;;;3.60;;
64615;SDS011;51027;42.162;24.754;2023-04-15T09:37:47;11.73;;;3.92;;
64615;SDS011;51027;42.162;24.754;2023-04-15T09:40:13;14.13;;;3.92;;
64615;SDS011;51027;42.162;24.754;2023-04-15T09:43:00;15.55;;;4.28;;
64615;SDS011;51027;42.162;24.754;2023-04-15T09:45:26;13.38;;;3.92;;
64615;SDS011;51027;42.162;24.754;2023-04-15T09:47:52;11.43;;;3.30;;
64615;SDS011;51027;42.162;24.754;2023-04-15T09:50:20;13.57;;;3.95;;
64615;SDS011;51027;42.162;24.754;2023-04-15T09:52:46;9.30;;;3.03;;
64615;SDS011;51027;42.162;24.754;2023-04-15T09:55:12;11.48;;;3.30;;
64615;SDS011;51027;42.162;24.754;2023-04-15T09:57:38;11.38;;;3.47;;
64615;SDS011;51027;42.162;24.754;2023-04-15T10:00:08;11.95;;;3.58;;
64615;SDS011;51027;42.162;24.754;2023-04-15T10:02:35;11.85;;;3.42;;
64615;SDS011;51027;42.162;24.754;2023-04-15T10:05:01;10.95;;;3.17;;
64615;SDS011;51027;42.162;24.754;2023-04-15T10:07:27;15.77;;;4.05;;
64615;SDS011;51027;42.162;24.754;2023-04-15T10:09:52;13.48;;;4.40;;
64615;SDS011;51027;42.162;24.754;2023-04-15T10:12:19;10.02;;;3.50;;
64615;SDS011;51027;42.162;24.754;2023-04-15T10:14:57;12.60;;;3.65;;
64615;SDS011;51027;42.162;24.754;2023-04-15T10:17:28;8.95;;;3.22;;
64615;SDS011;51027;42.162;24.754;2023-04-15T10:20:01;15.35;;;3.80;;
64615;SDS011;51027;42.162;24.754;2023-04-15T10:22:28;17.08;;;5.40;;
64615;SDS011;51027;42.162;24.754;2023-04-15T10:24:57;12.65;;;4.25;;
64615;SDS011;51027;42.162;24.754;2023-04-15T10:29:49;15.30;;;5.10;;
64615;SDS011;51027;42.162;24.754;2023-04-15T10:32:17;17.50;;;6.38;;
64615;SDS011;51027;42.162;24.754;2023-04-15T10:34:44;14.50;;;5.35;;
64615;SDS011;51027;42.162;24.754;2023-04-15T10:37:11;15.35;;;5.05;;
64615;SDS011;51027;42.162;24.754;2023-04-15T10:42:10;17.75;;;6.38;;
64615;SDS011;51027;42.162;24.754;2023-04-15T10:44:37;16.48;;;5.18;;
64615;SDS011;51027;42.162;24.754;2023-04-15T10:47:06;14.90;;;5.53;;
64615;SDS011;51027;42.162;24.754;2023-04-15T10:49:35;18.90;;;5.78;;
64615;SDS011;51027;42.162;24.754;2023-04-15T10:52:09;15.65;;;5.53;;
64615;SDS011;51027;42.162;24.754;2023-04-15T10:54:35;15.25;;;5.47;;
64615;SDS011;51027;42.162;24.754;2023-04-15T10:59:28;14.77;;;5.10;;
64615;SDS011;51027;42.162;24.754;2023-04-15T11:02:04;15.52;;;5.45;;
64615;SDS011;51027;42.162;24.754;2023-04-15T11:12:50;11.68;;;3.95;;
64615;SDS011;51027;42.162;24.754;2023-04-15T11:15:32;15.07;;;4.70;;
64615;SDS011;51027;42.162;24.754;2023-04-15T11:17:58;11.27;;;4.25;;
64615;SDS011;51027;42.162;24.754;2023-04-15T11:20:32;13.48;;;4.60;;
64615;SDS011;51027;42.162;24.754;2023-04-15T11:22:58;14.30;;;4.75;;
64615;SDS011;51027;42.162;24.754;2023-04-15T11:25:28;13.57;;;4.88;;
64615;SDS011;51027;42.162;24.754;2023-04-15T11:27:55;11.95;;;4.60;;
64615;SDS011;51027;42.162;24.754;2023-04-15T11:30:22;13.52;;;4.65;;
64615;SDS011;51027;42.162;24.754;2023-04-15T11:32:49;13.85;;;4.95;;
64615;SDS011;51027;42.162;24.754;2023-04-15T11:35:16;14.65;;;4.45;;
64615;SDS011;51027;42.162;24.754;2023-04-15T11:37:45;11.73;;;4.32;;
64615;SDS011;51027;42.162;24.754;2023-04-15T11:40:13;13.65;;;4.57;;
64615;SDS011;51027;42.162;24.754;2023-04-15T11:42:41;14.82;;;4.53;;
64615;SDS011;51027;42.162;24.754;2023-04-15T11:47:37;13.88;;;4.63;;
64615;SDS011;51027;42.162;24.754;2023-04-15T11:50:20;13.88;;;4.47;;
64615;SDS011;51027;42.162;24.754;2023-04-15T11:52:54;13.00;;;4.45;;
64615;SDS011;51027;42.162;24.754;2023-04-15T11:55:27;14.27;;;4.90;;
64615;SDS011;51027;42.162;24.754;2023-04-15T12:00:34;12.25;;;4.38;;
64615;SDS011;51027;42.162;24.754;2023-04-15T12:11:38;10.43;;;3.47;;
64615;SDS011;51027;42.162;24.754;2023-04-15T12:14:14;11.57;;;3.65;;
64615;SDS011;51027;42.162;24.754;2023-04-15T12:16:57;11.48;;;3.40;;
64615;SDS011;51027;42.162;24.754;2023-04-15T12:19:42;12.27;;;3.35;;
64615;SDS011;51027;42.162;24.754;2023-04-15T12:22:12;11.48;;;3.25;;
64615;SDS011;51027;42.162;24.754;2023-04-15T12:24:39;10.48;;;3.17;;
64615;SDS011;51027;42.162;24.754;2023-04-15T12:27:09;7.80;;;2.75;;
64615;SDS011;51027;42.162;24.754;2023-04-15T12:29:36;9.88;;;3.00;;
64615;SDS011;51027;42.162;24.754;2023-04-15T12:32:07;9.45;;;3.03;;
64615;SDS011;51027;42.162;24.754;2023-04-15T12:37:00;12.98;;;3.35;;
64615;SDS011;51027;42.162;24.754;2023-04-15T12:39:28;11.68;;;3.30;;
64615;SDS011;51027;42.162;24.754;2023-04-15T12:41:55;11.30;;;3.65;;
64615;SDS011;51027;42.162;24.754;2023-04-15T12:44:23;12.93;;;3.40;;
64615;SDS011;51027;42.162;24.754;2023-04-15T12:46:49;7.70;;;2.83;;
64615;SDS011;51027;42.162;24.754;2023-04-15T12:49:17;7.47;;;2.88;;
64615;SDS011;51027;42.162;24.754;2023-04-15T12:51:49;7.82;;;3.00;;
64615;SDS011;51027;42.162;24.754;2023-04-15T12:54:18;8.88;;;2.90;;
64615;SDS011;51027;42.162;24.754;2023-04-15T12:56:45;15.20;;;3.83;;
64615;SDS011;51027;42.162;24.754;2023-04-15T12:59:11;9.43;;;3.10;;
64615;SDS011;51027;42.162;24.754;2023-04-15T13:01:37;8.63;;;2.67;;
64615;SDS011;51027;42.162;24.754;2023-04-15T13:04:03;12.85;;;3.40;;
64615;SDS011;51027;42.162;24.754;2023-04-15T13:06:29;6.75;;;2.97;;
64615;SDS011;51027;42.162;24.754;2023-04-15T13:08:57;7.53;;;2.90;;
64615;SDS011;51027;42.162;24.754;2023-04-15T13:11:23;9.35;;;2.90;;
64615;SDS011;51027;42.162;24.754;2023-04-15T13:13:49;9.95;;;2.88;;
64615;SDS011;51027;42.162;24.754;2023-04-15T13:16:16;10.23;;;2.78;;
64615;SDS011;51027;42.162;24.754;2023-04-15T13:18:42;9.82;;;3.00;;
64615;SDS011;51027;42.162;24.754;2023-04-15T13:21:07;8.20;;;3.05;;
64615;SDS011;51027;42.162;24.754;2023-04-15T13:23:34;10.00;;;3.00;;
64615;SDS011;51027;42.162;24.754;2023-04-15T13:26:00;9.55;;;3.03;;
64615;SDS011;51027;42.162;24.754;2023-04-15T13:28:25;8.45;;;2.70;;
64615;SDS011;51027;42.162;24.754;2023-04-15T13:30:51;8.75;;;2.83;;
64615;SDS011;51027;42.162;24.754;2023-04-15T13:33:16;9.85;;;2.85;;
64615;SDS011;51027;42.162;24.754;2023-04-15T13:35:42;8.48;;;2.85;;
64615;SDS011;51027;42.162;24.754;2023-04-15T13:38:08;13.27;;;2.70;;
64615;SDS011;51027;42.162;24.754;2023-04-15T13:40:33;10.68;;;3.00;;
64615;SDS011;51027;42.162;24.754;2023-04-15T13:42:59;9.48;;;2.70;;
64615;SDS011;51027;42.162;24.754;2023-04-15T13:45:25;7.68;;;2.58;;
64615;SDS011;51027;42.162;24.754;2023-04-15T13:47:50;6.05;;;2.75;;
64615;SDS011;51027;42.162;24.754;2023-04-15T13:50:16;10.68;;;2.95;;
64615;SDS011;51027;42.162;24.754;2023-04-15T13:52:42;9.48;;;3.17;;
64615;SDS011;51027;42.162;24.754;2023-04-15T13:55:07;12.18;;;3.45;;
64615;SDS011;51027;42.162;24.754;2023-04-15T13:57:33;8.88;;;2.80;;
64615;SDS011;51027;42.162;24.754;2023-04-15T13:59:59;7.55;;;2.83;;
64615;SDS011;51027;42.162;24.754;2023-04-15T14:02:24;5.53;;;2.50;;
64615;SDS011;51027;42.162;24.754;2023-04-15T14:04:49;8.95;;;2.80;;
64615;SDS011;51027;42.162;24.754;2023-04-15T14:07:15;6.40;;;2.65;;
64615;SDS011;51027;42.162;24.754;2023-04-15T14:09:41;13.02;;;3.58;;
64615;SDS011;51027;42.162;24.754;2023-04-15T14:12:07;7.93;;;2.60;;
64615;SDS011;51027;42.162;24.754;2023-04-15T14:14:34;8.75;;;2.70;;
64615;SDS011;51027;42.162;24.754;2023-04-15T14:16:59;7.68;;;2.80;;
64615;SDS011;51027;42.162;24.754;2023-04-15T14:19:24;9.80;;;3.10;;
64615;SDS011;51027;42.162;24.754;2023-04-15T14:21:50;10.40;;;2.70;;
64615;SDS011;51027;42.162;24.754;2023-04-15T14:24:15;7.13;;;2.90;;
64615;SDS011;51027;42.162;24.754;2023-04-15T14:26:42;9.07;;;3.28;;
64615;SDS011;51027;42.162;24.754;2023-04-15T14:29:08;7.30;;;2.70;;
64615;SDS011;51027;42.162;24.754;2023-04-15T14:31:34;14.23;;;3.17;;
64615;SDS011;51027;42.162;24.754;2023-04-15T14:33:59;9.73;;;3.15;;
64615;SDS011;51027;42.162;24.754;2023-04-15T14:36:25;11.70;;;3.30;;
64615;SDS011;51027;42.162;24.754;2023-04-15T14:38:51;9.63;;;2.90;;
64615;SDS011;51027;42.162;24.754;2023-04-15T14:41:16;10.73;;;2.97;;
64615;SDS011;51027;42.162;24.754;2023-04-15T14:43:42;9.60;;;2.80;;
64615;SDS011;51027;42.162;24.754;2023-04-15T14:46:07;9.65;;;3.35;;
64615;SDS011;51027;42.162;24.754;2023-04-15T14:48:33;12.43;;;3.30;;
64615;SDS011;51027;42.162;24.754;2023-04-15T14:50:58;8.70;;;3.00;;
64615;SDS011;51027;42.162;24.754;2023-04-15T14:53:23;9.65;;;3.05;;
64615;SDS011;51027;42.162;24.754;2023-04-15T14:55:49;11.05;;;3.10;;